Terminal Aerodrome Forecast
Issued by NWS Billings, MT

Home | Current Version | Previous Version | Text Only | Print | Product List | Glossary On
Versions: 1 2 3 4 5 6 7 8 9 10 11 12 13 14 15 16 17 18 19 20
000
FTUS45 KBYZ 262335
TAFBIL
TAF
KBIL 262335Z 2700/2724 VRB06KT P6SM VCSH BKN050
     FM270700 06007KT P6SM VCSH BKN040 OVC070=

USA.gov is the U.S. government's official web portal to all federal, state and local government web resources and services.